createdAt,value
2017-11-27T00:00:19.873Z,99.99
2017-11-27T00:01:19.849Z,99.99
2017-11-27T00:02:19.823Z,99.99
2017-11-27T00:03:19.818Z,99.99
2017-11-27T00:04:19.769Z,99.99
2017-11-27T00:05:19.755Z,99.99
2017-11-27T00:06:19.738Z,99.99
2017-11-27T00:07:19.711Z,99.99
2017-11-27T00:08:19.694Z,99.99
2017-11-27T00:09:19.671Z,99.99
2017-11-27T00:10:19.651Z,99.99
2017-11-27T00:11:19.623Z,99.99
2017-11-27T00:12:19.579Z,99.99
2017-11-27T00:13:19.565Z,99.99
2017-11-27T00:14:19.531Z,99.99
2017-11-27T00:15:19.510Z,99.99
2017-11-27T00:16:19.512Z,99.99
2017-11-27T00:17:19.450Z,99.99
2017-11-27T00:18:19.444Z,99.99
2017-11-27T00:19:19.428Z,99.99
2017-11-27T00:20:19.408Z,99.99
2017-11-27T00:21:19.377Z,99.99
2017-11-27T00:22:19.345Z,99.99
2017-11-27T00:23:19.327Z,99.99
2017-11-27T00:24:19.316Z,99.99
2017-11-27T00:25:19.289Z,99.99
2017-11-27T00:26:19.256Z,99.99
2017-11-27T00:27:19.227Z,99.99
2017-11-27T00:28:19.201Z,99.99
2017-11-27T00:29:19.203Z,99.99
2017-11-27T00:30:19.184Z,99.99
2017-11-27T00:31:19.152Z,99.99
2017-11-27T00:32:19.094Z,99.99
2017-11-27T00:33:19.109Z,99.99
2017-11-27T00:34:19.083Z,99.99
2017-11-27T00:35:19.036Z,99.99
2017-11-27T00:36:19.015Z,99.99
2017-11-27T00:37:19.004Z,99.99
2017-11-27T00:38:18.956Z,99.99
2017-11-27T00:39:18.949Z,99.99
2017-11-27T00:40:18.926Z,99.99
2017-11-27T00:41:18.880Z,99.99
2017-11-27T00:42:18.857Z,99.99
2017-11-27T00:43:18.861Z,99.99
2017-11-27T00:44:18.846Z,99.99
2017-11-27T00:45:18.795Z,99.99
2017-11-27T00:46:18.779Z,99.99
2017-11-27T00:47:18.758Z,99.99
2017-11-27T00:48:18.715Z,99.99
2017-11-27T00:49:18.698Z,99.99
2017-11-27T00:50:18.696Z,99.99
2017-11-27T00:51:18.654Z,99.99
2017-11-27T00:52:18.627Z,99.95
2017-11-27T00:53:18.602Z,99.99
2017-11-27T00:54:18.579Z,99.99
2017-11-27T00:55:18.564Z,99.99
2017-11-27T00:56:18.619Z,99.99
2017-11-27T00:57:18.515Z,99.90
2017-11-27T00:58:18.471Z,99.99
2017-11-27T00:59:18.451Z,99.99
2017-11-27T01:00:18.437Z,99.71
2017-11-27T01:01:18.417Z,99.62
2017-11-27T01:02:18.379Z,99.24
2017-11-27T01:03:18.388Z,99.24
2017-11-27T01:04:18.321Z,99.33
2017-11-27T01:05:18.351Z,99.43
2017-11-27T01:06:18.286Z,99.05
2017-11-27T01:07:18.285Z,99.05
2017-11-27T01:08:18.252Z,99.71
2017-11-27T01:09:18.275Z,99.62
2017-11-27T01:10:18.228Z,99.81
2017-11-27T01:11:18.160Z,99.24
2017-11-27T01:12:18.136Z,99.43
2017-11-27T01:13:18.138Z,99.15
2017-11-27T01:14:18.142Z,99.43
2017-11-27T01:15:18.067Z,98.86
2017-11-27T01:16:18.055Z,98.68
2017-11-27T01:17:18.029Z,98.96
2017-11-27T01:18:18.014Z,98.86
2017-11-27T01:19:18.006Z,98.86
2017-11-27T01:20:17.967Z,98.86
2017-11-27T01:21:17.931Z,98.49
2017-11-27T01:22:17.898Z,99.05
2017-11-27T01:23:17.884Z,98.77
2017-11-27T01:24:17.858Z,98.30
2017-11-27T01:25:17.841Z,98.49
2017-11-27T01:26:17.814Z,98.39
2017-11-27T01:27:17.796Z,98.20
2017-11-27T01:28:17.792Z,98.11
2017-11-27T01:29:17.746Z,97.92
2017-11-27T01:30:17.737Z,98.20
2017-11-27T01:31:17.695Z,98.01
2017-11-27T01:32:17.670Z,98.39
2017-11-27T01:33:17.653Z,98.30
2017-11-27T01:34:17.636Z,98.39
2017-11-27T01:35:17.604Z,98.49
2017-11-27T01:36:17.593Z,98.11
2017-11-27T01:37:17.572Z,98.20
2017-11-27T01:38:17.535Z,97.54
2017-11-27T01:39:17.533Z,97.63
2017-11-27T01:40:17.506Z,97.63
2017-11-27T01:41:17.493Z,98.39
2017-11-27T01:42:17.440Z,97.92
2017-11-27T01:43:17.422Z,97.63
2017-11-27T01:44:17.411Z,98.58
2017-11-27T01:45:17.362Z,97.63
2017-11-27T01:46:17.343Z,97.82
2017-11-27T01:47:17.347Z,98.30
2017-11-27T01:48:17.295Z,98.30
2017-11-27T01:49:17.264Z,97.82
2017-11-27T01:50:17.267Z,97.54
2017-11-27T01:51:17.216Z,98.11
2017-11-27T01:52:17.203Z,97.92
2017-11-27T01:53:17.177Z,98.49
2017-11-27T01:54:17.195Z,98.39
2017-11-27T01:55:17.180Z,98.30
2017-11-27T01:56:17.101Z,98.11
2017-11-27T01:57:17.101Z,98.39
2017-11-27T01:58:17.082Z,98.49
2017-11-27T01:59:17.038Z,98.68
2017-11-27T02:00:17.026Z,98.77
2017-11-27T02:01:17.027Z,98.77
2017-11-27T02:02:16.984Z,98.96
2017-11-27T02:03:16.958Z,99.05
2017-11-27T02:04:16.937Z,99.24
2017-11-27T02:05:16.894Z,99.33
2017-11-27T02:06:16.899Z,99.24
2017-11-27T02:07:16.871Z,98.96
2017-11-27T02:08:16.811Z,98.96
2017-11-27T02:09:16.809Z,99.15
2017-11-27T02:10:16.786Z,99.05
2017-11-27T02:11:16.744Z,99.05
2017-11-27T02:12:16.741Z,99.24
2017-11-27T02:13:16.705Z,99.43
2017-11-27T02:14:16.695Z,99.52
2017-11-27T02:15:16.661Z,99.43
2017-11-27T02:16:16.627Z,99.43
2017-11-27T02:17:16.610Z,98.96
2017-11-27T02:18:16.581Z,99.24
2017-11-27T02:19:16.559Z,99.15
2017-11-27T02:20:16.539Z,99.33
2017-11-27T02:21:16.546Z,99.24
2017-11-27T02:22:16.536Z,99.15
2017-11-27T02:23:16.470Z,98.86
2017-11-27T02:24:16.447Z,99.15
2017-11-27T02:25:16.415Z,99.62
2017-11-27T02:26:16.390Z,98.86
2017-11-27T02:27:16.378Z,98.96
2017-11-27T02:28:16.356Z,99.24
2017-11-27T02:29:16.325Z,99.24
2017-11-27T02:30:16.332Z,99.33
2017-11-27T02:31:16.274Z,99.05
2017-11-27T02:32:16.242Z,98.86
2017-11-27T02:33:16.240Z,98.77
2017-11-27T02:34:16.218Z,98.49
2017-11-27T02:35:16.184Z,98.58
2017-11-27T02:36:16.160Z,98.96
2017-11-27T02:37:16.150Z,98.86
2017-11-27T02:38:16.729Z,99.15
2017-11-27T02:39:16.100Z,99.24
2017-11-27T02:40:16.087Z,99.24
2017-11-27T02:41:16.048Z,99.15
2017-11-27T02:42:16.021Z,99.15
2017-11-27T02:43:15.989Z,98.86
2017-11-27T02:44:15.975Z,99.15
2017-11-27T02:45:15.943Z,99.43
2017-11-27T02:46:15.921Z,99.15
2017-11-27T02:47:15.912Z,98.86
2017-11-27T02:48:15.857Z,99.15
2017-11-27T02:49:15.836Z,99.33
2017-11-27T02:50:15.880Z,98.58
2017-11-27T02:51:15.841Z,98.11
2017-11-27T02:52:15.777Z,97.92
2017-11-27T02:53:15.746Z,98.11
2017-11-27T02:54:15.747Z,97.92
2017-11-27T02:55:15.704Z,98.01
2017-11-27T02:56:15.696Z,97.35
2017-11-27T02:57:15.705Z,97.35
2017-11-27T02:58:15.630Z,97.82
2017-11-27T02:59:15.602Z,98.01
2017-11-27T03:00:15.605Z,97.92
2017-11-27T03:01:15.587Z,97.82
2017-11-27T03:02:15.531Z,98.30
2017-11-27T03:03:15.502Z,97.82
2017-11-27T03:04:15.502Z,98.49
2017-11-27T03:05:15.462Z,98.58
2017-11-27T03:06:15.439Z,97.92
2017-11-27T03:07:15.421Z,97.16
2017-11-27T03:08:15.403Z,97.35
2017-11-27T03:09:15.371Z,98.01
2017-11-27T03:10:15.396Z,98.01
2017-11-27T03:11:15.357Z,97.82
2017-11-27T03:12:15.295Z,97.63
2017-11-27T03:13:15.321Z,97.73
2017-11-27T03:14:15.267Z,98.01
2017-11-27T03:15:15.223Z,97.73
2017-11-27T03:16:15.201Z,98.01
2017-11-27T03:17:15.177Z,97.82
2017-11-27T03:18:15.166Z,97.82
2017-11-27T03:19:15.128Z,97.82
2017-11-27T03:20:15.111Z,97.82
2017-11-27T03:21:15.085Z,98.20
2017-11-27T03:22:15.069Z,98.01
2017-11-27T03:23:15.087Z,97.73
2017-11-27T03:24:15.028Z,98.01
2017-11-27T03:25:15.033Z,98.11
2017-11-27T03:26:15.017Z,97.82
2017-11-27T03:27:14.954Z,97.25
2017-11-27T03:28:14.927Z,97.44
2017-11-27T03:29:14.893Z,97.44
2017-11-27T03:30:14.876Z,96.97
2017-11-27T03:31:14.854Z,97.35
2017-11-27T03:32:14.828Z,97.06
2017-11-27T03:33:14.811Z,97.16
2017-11-27T03:34:14.794Z,97.16
2017-11-27T03:35:14.756Z,97.35
2017-11-27T03:36:14.732Z,97.16
2017-11-27T03:37:14.753Z,97.54
2017-11-27T03:38:14.698Z,97.44
2017-11-27T03:39:14.657Z,97.63
2017-11-27T03:40:14.667Z,97.73
2017-11-27T03:41:14.626Z,96.78
2017-11-27T03:42:14.584Z,97.25
2017-11-27T03:43:14.577Z,96.97
2017-11-27T03:44:14.543Z,96.12
2017-11-27T03:45:14.563Z,96.40
2017-11-27T03:46:14.500Z,95.74
2017-11-27T03:47:14.478Z,96.12
2017-11-27T03:48:14.487Z,96.21
2017-11-27T03:49:14.429Z,96.59
2017-11-27T03:50:14.406Z,96.78
2017-11-27T03:51:14.407Z,97.16
2017-11-27T03:52:14.368Z,97.54
2017-11-27T03:53:14.326Z,97.35
2017-11-27T03:54:14.325Z,96.78
2017-11-27T03:55:14.299Z,96.97
2017-11-27T03:56:14.253Z,96.97
2017-11-27T03:57:14.231Z,97.16
2017-11-27T03:58:14.243Z,96.97
2017-11-27T03:59:14.212Z,96.50
2017-11-27T04:00:14.186Z,95.93
2017-11-27T04:01:14.158Z,96.02
2017-11-27T04:02:14.118Z,96.31
2017-11-27T04:03:14.088Z,96.21
2017-11-27T04:04:14.085Z,96.02
2017-11-27T04:05:14.069Z,96.02
2017-11-27T04:06:14.020Z,96.12
2017-11-27T04:07:14.032Z,96.21
2017-11-27T04:08:13.989Z,96.50
2017-11-27T04:09:13.962Z,96.78
2017-11-27T04:10:13.924Z,97.06
2017-11-27T04:11:13.925Z,96.21
2017-11-27T04:12:14.752Z,96.78
2017-11-27T04:13:13.864Z,96.78
2017-11-27T04:14:13.845Z,97.06
2017-11-27T04:15:13.828Z,96.50
2017-11-27T04:16:13.785Z,96.50
2017-11-27T04:17:13.762Z,96.40
2017-11-27T04:18:13.766Z,96.50
2017-11-27T04:19:13.709Z,96.12
2017-11-27T04:20:13.692Z,96.50
2017-11-27T04:21:13.671Z,96.50
2017-11-27T04:22:13.660Z,96.50
2017-11-27T04:23:13.634Z,96.50
2017-11-27T04:24:13.598Z,96.02
2017-11-27T04:25:13.616Z,96.31
2017-11-27T04:26:13.554Z,95.55
2017-11-27T04:27:13.532Z,94.70
2017-11-27T04:28:13.530Z,94.60
2017-11-27T04:29:13.494Z,94.70
2017-11-27T04:30:13.455Z,95.07
2017-11-27T04:31:13.438Z,94.79
2017-11-27T04:32:13.427Z,95.36
2017-11-27T04:33:13.383Z,95.07
2017-11-27T04:34:13.356Z,94.98
2017-11-27T04:35:13.338Z,95.07
2017-11-27T04:36:13.309Z,94.70
2017-11-27T04:37:13.292Z,95.26
2017-11-27T04:38:13.266Z,95.36
2017-11-27T04:39:13.242Z,95.55
2017-11-27T04:40:13.217Z,95.83
2017-11-27T04:41:13.187Z,95.74
2017-11-27T04:42:13.776Z,96.31
2017-11-27T04:43:13.156Z,95.93
2017-11-27T04:44:13.132Z,96.21
2017-11-27T04:45:13.169Z,95.64
2017-11-27T04:46:13.090Z,95.83
2017-11-27T04:47:13.057Z,96.02
2017-11-27T04:48:13.034Z,96.02
2017-11-27T04:49:13.015Z,95.83
2017-11-27T04:50:12.981Z,96.21
2017-11-27T04:51:12.977Z,96.31
2017-11-27T04:52:12.945Z,96.02
2017-11-27T04:53:13.756Z,96.02
2017-11-27T04:54:12.922Z,95.74
2017-11-27T04:55:12.911Z,96.40
2017-11-27T04:56:12.838Z,95.74
2017-11-27T04:57:12.839Z,96.02
2017-11-27T04:58:12.796Z,95.93
2017-11-27T04:59:12.781Z,95.93
2017-11-27T05:00:12.976Z,96.21
2017-11-27T05:01:12.764Z,96.50
2017-11-27T05:02:12.698Z,96.02
2017-11-27T05:03:13.045Z,96.12
2017-11-27T05:04:12.643Z,95.17
2017-11-27T05:05:12.667Z,94.23
2017-11-27T05:06:12.626Z,94.13
2017-11-27T05:07:12.576Z,93.84
2017-11-27T05:08:12.575Z,94.32
2017-11-27T05:09:12.541Z,94.60
2017-11-27T05:10:12.577Z,94.23
2017-11-27T05:11:12.513Z,94.04
2017-11-27T05:12:12.560Z,93.94
2017-11-27T05:13:12.483Z,93.84
2017-11-27T05:14:12.493Z,93.84
2017-11-27T05:15:12.388Z,93.46
2017-11-27T05:16:12.354Z,94.23
2017-11-27T05:17:12.393Z,94.42
2017-11-27T05:18:12.325Z,94.42
2017-11-27T05:19:12.330Z,94.60
2017-11-27T05:20:12.289Z,94.32
2017-11-27T05:21:12.315Z,94.51
2017-11-27T05:22:12.252Z,94.04
2017-11-27T05:23:12.199Z,93.84
2017-11-27T05:24:12.177Z,93.65
2017-11-27T05:25:12.191Z,93.27
2017-11-27T05:26:12.129Z,93.56
2017-11-27T05:27:12.109Z,93.08
2017-11-27T05:28:12.092Z,93.65
2017-11-27T05:29:12.062Z,93.46
2017-11-27T05:30:12.089Z,93.94
2017-11-27T05:31:12.020Z,94.04
2017-11-27T05:32:11.990Z,93.75
2017-11-27T05:33:11.994Z,93.65
2017-11-27T05:34:11.975Z,93.56
2017-11-27T05:35:11.923Z,93.65
2017-11-27T05:36:11.892Z,94.04
2017-11-27T05:37:11.873Z,93.65
2017-11-27T05:38:11.867Z,93.27
2017-11-27T05:39:11.849Z,93.18
2017-11-27T05:40:11.827Z,93.27
2017-11-27T05:41:11.770Z,93.46
2017-11-27T05:42:11.776Z,93.94
2017-11-27T05:43:11.731Z,93.65
2017-11-27T05:44:11.701Z,94.04
2017-11-27T05:45:11.699Z,93.46
2017-11-27T05:46:11.667Z,93.65
2017-11-27T05:47:11.634Z,93.84
2017-11-27T05:48:11.608Z,94.32
2017-11-27T05:49:11.595Z,94.23
2017-11-27T05:50:11.576Z,94.32
2017-11-27T05:51:11.535Z,94.42
2017-11-27T05:52:11.512Z,94.23
2017-11-27T05:53:11.487Z,94.98
2017-11-27T05:54:11.465Z,94.98
2017-11-27T05:55:11.445Z,94.89
2017-11-27T05:56:11.420Z,94.89
2017-11-27T05:57:11.430Z,95.26
2017-11-27T05:58:11.400Z,94.13
2017-11-27T05:59:11.350Z,94.42
2017-11-27T06:00:11.346Z,94.32
2017-11-27T06:01:11.296Z,94.60
2017-11-27T06:02:11.276Z,94.32
2017-11-27T06:03:11.258Z,94.42
2017-11-27T06:04:11.260Z,94.42
2017-11-27T06:05:11.231Z,93.65
2017-11-27T06:06:11.203Z,93.37
2017-11-27T06:07:11.169Z,94.23
2017-11-27T06:08:11.136Z,93.46
2017-11-27T06:09:11.114Z,93.56
2017-11-27T06:10:11.106Z,93.37
2017-11-27T06:11:11.087Z,93.46
2017-11-27T06:12:11.036Z,93.75
2017-11-27T06:13:11.025Z,94.04
2017-11-27T06:14:11.013Z,94.13
2017-11-27T06:15:11.001Z,93.75
2017-11-27T06:16:10.969Z,93.84
2017-11-27T06:17:10.940Z,94.04
2017-11-27T06:18:10.944Z,93.84
2017-11-27T06:19:10.867Z,94.04
2017-11-27T06:20:10.873Z,94.23
2017-11-27T06:21:10.856Z,94.13
2017-11-27T06:22:10.804Z,94.51
2017-11-27T06:23:10.795Z,94.60
2017-11-27T06:24:10.777Z,94.42
2017-11-27T06:25:10.732Z,94.51
2017-11-27T06:26:10.730Z,94.13
2017-11-27T06:27:10.680Z,93.56
2017-11-27T06:28:10.684Z,93.84
2017-11-27T06:29:10.688Z,93.94
2017-11-27T06:30:10.632Z,94.13
2017-11-27T06:31:10.615Z,93.84
2017-11-27T06:32:10.579Z,94.23
2017-11-27T06:33:10.578Z,94.23
2017-11-27T06:34:10.517Z,93.84
2017-11-27T06:35:10.519Z,94.23
2017-11-27T06:36:10.494Z,94.42
2017-11-27T06:37:10.436Z,94.04
2017-11-27T06:38:10.460Z,93.65
2017-11-27T06:39:10.400Z,94.04
2017-11-27T06:40:10.409Z,93.94
2017-11-27T06:41:10.366Z,93.65
2017-11-27T06:42:10.319Z,93.75
2017-11-27T06:43:10.326Z,93.18
2017-11-27T06:44:10.274Z,93.75
2017-11-27T06:45:10.274Z,93.84
2017-11-27T06:46:10.254Z,94.23
2017-11-27T06:47:10.215Z,94.51
2017-11-27T06:48:10.182Z,94.51
2017-11-27T06:49:10.162Z,94.32
2017-11-27T06:50:10.147Z,94.51
2017-11-27T06:51:10.109Z,94.23
2017-11-27T06:52:10.097Z,94.70
2017-11-27T06:53:10.071Z,94.79
2017-11-27T06:54:10.081Z,94.32
2017-11-27T06:55:10.046Z,94.32
2017-11-27T06:56:09.982Z,94.42
2017-11-27T06:57:09.972Z,94.60
2017-11-27T06:58:09.932Z,94.60
2017-11-27T06:59:09.923Z,94.89
2017-11-27T07:00:09.908Z,94.32
2017-11-27T07:01:09.861Z,93.94
2017-11-27T07:02:09.848Z,94.23
2017-11-27T07:03:09.833Z,93.65
2017-11-27T07:04:09.824Z,93.75
2017-11-27T07:05:09.784Z,93.08
2017-11-27T07:06:09.761Z,93.27
2017-11-27T07:07:09.734Z,93.08
2017-11-27T07:08:09.729Z,93.37
2017-11-27T07:09:09.691Z,93.46
2017-11-27T07:10:09.655Z,93.37
2017-11-27T07:11:09.665Z,93.18
2017-11-27T07:12:09.619Z,93.27
2017-11-27T07:13:09.587Z,93.18
2017-11-27T07:14:09.619Z,93.27
2017-11-27T07:15:09.525Z,93.27
2017-11-27T07:16:09.519Z,92.80
2017-11-27T07:17:09.481Z,92.90
2017-11-27T07:18:09.460Z,92.52
2017-11-27T07:19:09.454Z,91.95
2017-11-27T07:20:09.439Z,92.80
2017-11-27T07:21:09.389Z,93.37
2017-11-27T07:22:09.375Z,92.99
2017-11-27T07:23:09.346Z,93.46
2017-11-27T07:24:09.360Z,92.61
2017-11-27T07:25:09.328Z,91.95
2017-11-27T07:26:09.281Z,92.33
2017-11-27T07:27:09.254Z,92.90
2017-11-27T07:28:09.235Z,92.52
2017-11-27T07:29:09.227Z,92.80
2017-11-27T07:30:09.207Z,91.95
2017-11-27T07:31:09.819Z,91.95
2017-11-27T07:32:09.136Z,91.95
2017-11-27T07:33:09.140Z,91.67
2017-11-27T07:34:09.094Z,92.05
2017-11-27T07:35:09.075Z,91.67
2017-11-27T07:36:09.056Z,92.14
2017-11-27T07:37:09.040Z,91.86
2017-11-27T07:38:08.981Z,92.61
2017-11-27T07:39:08.983Z,92.80
2017-11-27T07:40:08.977Z,92.61
2017-11-27T07:41:08.947Z,92.61
2017-11-27T07:42:08.893Z,92.71
2017-11-27T07:43:08.886Z,91.95
2017-11-27T07:44:08.882Z,92.14
2017-11-27T07:45:08.834Z,91.67
2017-11-27T07:46:08.805Z,91.86
2017-11-27T07:47:08.789Z,91.86
2017-11-27T07:48:08.762Z,91.67
2017-11-27T07:49:08.722Z,91.57
2017-11-27T07:50:08.713Z,91.86
2017-11-27T07:51:08.672Z,92.05
2017-11-27T07:52:08.717Z,92.33
2017-11-27T07:53:08.636Z,92.05
2017-11-27T07:54:08.613Z,91.48
2017-11-27T07:55:08.583Z,91.95
2017-11-27T07:56:08.586Z,91.00
2017-11-27T07:57:08.546Z,90.81
2017-11-27T07:58:08.522Z,90.44
2017-11-27T07:59:08.486Z,90.81
2017-11-27T08:00:08.508Z,91.29
2017-11-27T08:01:08.439Z,91.00
2017-11-27T08:02:08.442Z,91.57
2017-11-27T08:03:08.403Z,91.19
2017-11-27T08:04:08.400Z,91.57
2017-11-27T08:05:08.424Z,91.19
2017-11-27T08:06:08.318Z,90.63
2017-11-27T08:07:08.302Z,90.34
2017-11-27T08:08:08.270Z,90.44
2017-11-27T08:09:08.260Z,89.96
2017-11-27T08:10:08.251Z,90.63
2017-11-27T08:11:08.203Z,90.81
2017-11-27T08:12:08.202Z,91.19
2017-11-27T08:13:08.167Z,90.44
2017-11-27T08:14:08.136Z,90.44
2017-11-27T08:15:08.102Z,91.05
2017-11-27T08:16:08.087Z,91.05
2017-11-27T08:17:08.074Z,90.77
2017-11-27T08:18:08.036Z,90.10
2017-11-27T08:19:08.069Z,89.82
2017-11-27T08:20:08.042Z,89.82
2017-11-27T08:21:07.981Z,89.34
2017-11-27T08:22:07.961Z,89.53
2017-11-27T08:23:07.981Z,89.53
2017-11-27T08:24:07.944Z,89.53
2017-11-27T08:25:07.890Z,89.15
2017-11-27T08:26:07.876Z,88.78
2017-11-27T08:27:07.842Z,89.15
2017-11-27T08:28:07.794Z,89.06
2017-11-27T08:29:07.789Z,89.63
2017-11-27T08:30:07.756Z,89.63
2017-11-27T08:31:07.746Z,90.01
2017-11-27T08:32:07.706Z,89.34
2017-11-27T08:33:07.707Z,89.15
2017-11-27T08:34:07.687Z,89.15
2017-11-27T08:35:07.641Z,89.25
2017-11-27T08:36:07.611Z,88.78
2017-11-27T08:37:07.737Z,89.91
2017-11-27T08:38:07.611Z,90.29
2017-11-27T08:39:07.542Z,89.63
2017-11-27T08:40:07.557Z,89.34
2017-11-27T08:41:07.518Z,88.96
2017-11-27T08:42:07.516Z,88.78
2017-11-27T08:43:07.558Z,88.59
2017-11-27T08:44:07.470Z,88.40
2017-11-27T08:45:07.454Z,88.11
2017-11-27T08:46:07.387Z,88.02
2017-11-27T08:47:07.355Z,88.49
2017-11-27T08:48:07.358Z,88.40
2017-11-27T08:49:07.325Z,88.11
2017-11-27T08:50:07.312Z,89.34
2017-11-27T08:51:07.292Z,89.72
2017-11-27T08:52:07.241Z,89.63
2017-11-27T08:53:07.241Z,89.06
2017-11-27T08:54:07.216Z,88.68
2017-11-27T08:55:07.170Z,88.96
2017-11-27T08:56:07.142Z,89.15
2017-11-27T08:57:07.137Z,88.59
2017-11-27T08:58:07.089Z,89.06
2017-11-27T08:59:07.066Z,89.15
2017-11-27T09:00:07.079Z,89.15
2017-11-27T09:01:07.045Z,89.15
2017-11-27T09:02:06.995Z,88.78
2017-11-27T09:03:07.001Z,88.96
2017-11-27T09:04:06.958Z,89.06
2017-11-27T09:05:06.968Z,88.96
2017-11-27T09:06:06.930Z,88.59
2017-11-27T09:07:06.879Z,88.49
2017-11-27T09:08:06.850Z,89.15
2017-11-27T09:09:06.835Z,89.72
2017-11-27T09:10:06.824Z,89.15
2017-11-27T09:11:06.816Z,89.44
2017-11-27T09:12:06.765Z,89.15
2017-11-27T09:13:06.762Z,89.25
2017-11-27T09:14:06.762Z,88.78
2017-11-27T09:15:06.690Z,88.68
2017-11-27T09:16:06.689Z,89.63
2017-11-27T09:17:06.654Z,90.10
2017-11-27T09:18:06.620Z,89.34
2017-11-27T09:19:06.602Z,89.53
2017-11-27T09:20:06.611Z,89.15
2017-11-27T09:21:06.558Z,89.15
2017-11-27T09:22:06.529Z,89.06
2017-11-27T09:23:06.534Z,88.59
2017-11-27T09:24:06.528Z,88.87
2017-11-27T09:25:06.501Z,88.73
2017-11-27T09:26:06.459Z,89.20
2017-11-27T09:27:06.406Z,88.06
2017-11-27T09:28:06.388Z,88.06
2017-11-27T09:29:06.355Z,87.59
2017-11-27T09:30:06.367Z,87.97
2017-11-27T09:31:06.353Z,87.83
2017-11-27T09:32:06.295Z,88.59
2017-11-27T09:33:06.275Z,88.49
2017-11-27T09:34:06.268Z,89.06
2017-11-27T09:35:06.243Z,89.15
2017-11-27T09:36:06.213Z,89.06
2017-11-27T09:37:06.202Z,88.68
2017-11-27T09:38:06.170Z,89.15
2017-11-27T09:39:06.147Z,89.06
2017-11-27T09:40:06.103Z,88.96
2017-11-27T09:41:06.113Z,88.59
2017-11-27T09:42:06.085Z,89.06
2017-11-27T09:43:06.045Z,89.53
2017-11-27T09:44:06.016Z,89.91
2017-11-27T09:45:06.022Z,89.91
2017-11-27T09:46:05.975Z,89.82
2017-11-27T09:47:06.004Z,89.15
2017-11-27T09:48:05.945Z,89.44
2017-11-27T09:49:05.893Z,90.10
2017-11-27T09:50:05.885Z,90.29
2017-11-27T09:51:05.851Z,89.82
2017-11-27T09:52:05.829Z,90.20
2017-11-27T09:53:05.822Z,90.86
2017-11-27T09:54:05.785Z,90.86
2017-11-27T09:55:05.778Z,90.77
2017-11-27T09:56:05.734Z,90.67
2017-11-27T09:57:05.714Z,90.67
2017-11-27T09:58:05.697Z,91.05
2017-11-27T09:59:05.666Z,90.86
2017-11-27T10:00:05.648Z,90.48
2017-11-27T10:01:05.661Z,90.58
2017-11-27T10:02:05.617Z,91.28
2017-11-27T10:03:05.609Z,91.09
2017-11-27T10:04:05.541Z,90.72
2017-11-27T10:05:05.610Z,90.72
2017-11-27T10:06:05.495Z,90.62
2017-11-27T10:07:05.498Z,90.20
2017-11-27T10:08:05.492Z,90.86
2017-11-27T10:09:05.436Z,90.95
2017-11-27T10:10:05.451Z,92.19
2017-11-27T10:11:05.409Z,92.19
2017-11-27T10:12:05.364Z,92.47
2017-11-27T10:13:05.336Z,93.13
2017-11-27T10:14:05.308Z,93.04
2017-11-27T10:15:05.292Z,93.99
2017-11-27T10:16:05.281Z,94.18
2017-11-27T10:17:05.251Z,93.89
2017-11-27T10:18:05.218Z,93.99
2017-11-27T10:19:05.213Z,93.99
2017-11-27T10:20:05.173Z,94.65
2017-11-27T10:21:05.166Z,94.93
2017-11-27T10:22:05.125Z,94.93
2017-11-27T10:23:05.097Z,95.31
2017-11-27T10:24:05.084Z,95.79
2017-11-27T10:25:05.056Z,96.17
2017-11-27T10:26:05.058Z,95.98
2017-11-27T10:27:05.036Z,95.98
2017-11-27T10:28:04.999Z,95.88
2017-11-27T10:29:04.959Z,95.88
2017-11-27T10:30:04.952Z,96.07
2017-11-27T10:31:04.913Z,95.60
2017-11-27T10:32:04.918Z,96.07
2017-11-27T10:33:04.912Z,96.07
2017-11-27T10:34:04.924Z,96.55
2017-11-27T10:35:04.823Z,97.02
2017-11-27T10:36:04.795Z,97.59
2017-11-27T10:37:04.788Z,97.30
2017-11-27T10:38:04.748Z,96.92
2017-11-27T10:39:04.741Z,97.35
2017-11-27T10:40:04.737Z,98.30
2017-11-27T10:41:04.681Z,97.35
2017-11-27T10:42:04.658Z,98.30
2017-11-27T10:43:04.630Z,98.49
2017-11-27T10:44:04.620Z,98.11
2017-11-27T10:45:04.609Z,97.92
2017-11-27T10:46:04.620Z,98.11
2017-11-27T10:47:04.544Z,98.11
2017-11-27T10:48:04.511Z,97.92
2017-11-27T10:49:04.528Z,98.20
2017-11-27T10:50:04.487Z,98.39
2017-11-27T10:51:04.468Z,98.35
2017-11-27T10:52:04.450Z,98.49
2017-11-27T10:53:04.400Z,98.39
2017-11-27T10:54:04.375Z,98.35
2017-11-27T10:55:04.380Z,98.30
2017-11-27T10:56:04.322Z,98.58
2017-11-27T10:57:04.332Z,98.72
2017-11-27T10:58:04.292Z,98.68
2017-11-27T10:59:04.290Z,98.91
2017-11-27T11:00:04.222Z,99.20
2017-11-27T11:01:04.232Z,99.10
2017-11-27T11:02:04.195Z,99.10
2017-11-27T11:03:04.205Z,98.82
2017-11-27T11:04:04.164Z,98.30
2017-11-27T11:05:04.117Z,98.30
2017-11-27T11:06:04.098Z,98.68
2017-11-27T11:07:04.073Z,98.68
2017-11-27T11:08:04.064Z,99.24
2017-11-27T11:09:04.046Z,99.05
2017-11-27T11:10:04.015Z,99.81
2017-11-27T11:11:04.011Z,99.52
2017-11-27T11:12:03.953Z,99.62
2017-11-27T11:13:03.955Z,99.99
2017-11-27T11:14:03.950Z,99.90
2017-11-27T11:15:03.909Z,99.52
2017-11-27T11:16:03.900Z,99.24
2017-11-27T11:17:03.831Z,99.99
2017-11-27T11:18:03.815Z,99.99
2017-11-27T11:19:03.774Z,99.99
2017-11-27T11:20:03.807Z,99.99
2017-11-27T11:21:03.774Z,99.90
2017-11-27T11:22:03.743Z,99.71
2017-11-27T11:23:03.699Z,99.99
2017-11-27T11:24:03.696Z,99.90
2017-11-27T11:25:03.690Z,99.62
2017-11-27T11:26:03.639Z,99.90
2017-11-27T11:27:03.596Z,99.99
2017-11-27T11:28:03.617Z,99.81
2017-11-27T11:29:03.553Z,99.81
2017-11-27T11:30:03.574Z,99.43
2017-11-27T11:31:03.506Z,99.05
2017-11-27T11:32:03.500Z,99.43
2017-11-27T11:33:03.465Z,99.62
2017-11-27T11:34:03.458Z,99.81
2017-11-27T11:35:03.400Z,99.99
2017-11-27T11:36:03.413Z,99.99
2017-11-27T11:37:03.394Z,99.99
2017-11-27T11:38:03.382Z,99.99
2017-11-27T11:39:03.328Z,99.62
2017-11-27T11:40:03.297Z,99.15
2017-11-27T11:41:03.272Z,99.99
2017-11-27T11:42:03.239Z,99.81
2017-11-27T11:43:03.247Z,99.99
2017-11-27T11:44:03.256Z,99.99
2017-11-27T11:45:03.172Z,99.99
2017-11-27T11:46:03.212Z,99.99
2017-11-27T11:47:03.141Z,99.99
2017-11-27T11:48:03.101Z,99.99
2017-11-27T11:49:03.080Z,99.71
2017-11-27T11:50:03.110Z,99.99
2017-11-27T11:51:03.028Z,99.99
2017-11-27T11:52:03.002Z,99.99
2017-11-27T11:53:02.986Z,99.99
2017-11-27T11:54:02.950Z,99.99
2017-11-27T11:55:02.940Z,99.99
2017-11-27T11:56:02.952Z,99.99
2017-11-27T11:57:02.900Z,99.99
2017-11-27T11:58:02.857Z,99.99
2017-11-27T11:59:02.864Z,99.99
2017-11-27T12:00:02.812Z,99.99
2017-11-27T12:01:02.808Z,99.99
2017-11-27T12:02:02.829Z,99.99
2017-11-27T12:03:02.744Z,99.99
2017-11-27T12:04:02.757Z,99.99
2017-11-27T12:05:02.732Z,99.99
2017-11-27T12:06:02.704Z,99.99
2017-11-27T12:07:02.672Z,99.99
2017-11-27T12:08:02.618Z,99.99
2017-11-27T12:12:08.951Z,99.99
2017-11-27T12:13:08.715Z,99.99
2017-11-27T12:14:06.821Z,99.99
2017-11-27T12:15:09.339Z,99.99
2017-11-27T12:16:06.619Z,99.99
2017-11-27T12:17:06.474Z,99.99
2017-11-27T12:18:06.424Z,99.99
2017-11-27T12:19:06.393Z,99.99
2017-11-27T12:20:06.400Z,99.99
2017-11-27T12:21:06.388Z,99.99
2017-11-27T12:22:06.310Z,99.99
2017-11-27T12:23:06.390Z,99.99
2017-11-27T12:24:06.263Z,99.99
2017-11-27T12:25:06.283Z,99.99
2017-11-27T12:26:06.284Z,99.99
2017-11-27T12:27:06.328Z,99.99
2017-11-27T12:28:06.440Z,99.99
2017-11-27T12:29:06.191Z,99.99
2017-11-27T12:30:06.118Z,99.99
2017-11-27T12:31:06.192Z,99.99
2017-11-27T12:32:06.060Z,99.99
2017-11-27T12:33:06.139Z,99.99
2017-11-27T12:34:06.097Z,99.99
2017-11-27T12:35:06.085Z,99.99
2017-11-27T12:36:06.043Z,99.99
2017-11-27T12:37:06.022Z,99.99
2017-11-27T12:38:05.978Z,99.99
2017-11-27T12:39:05.974Z,99.99
2017-11-27T12:40:05.923Z,99.99
2017-11-27T12:41:05.995Z,99.99
2017-11-27T12:42:05.821Z,99.99
2017-11-27T12:43:05.870Z,99.99
2017-11-27T12:44:05.862Z,99.99
2017-11-27T12:45:05.766Z,99.99
2017-11-27T12:46:05.840Z,99.99
2017-11-27T12:47:05.750Z,99.99
2017-11-27T12:48:05.707Z,99.99
2017-11-27T12:49:05.750Z,99.99
2017-11-27T12:50:05.706Z,99.99
2017-11-27T12:51:05.658Z,99.99
2017-11-27T12:52:05.639Z,99.99
2017-11-27T12:53:05.576Z,99.99
2017-11-27T12:54:05.603Z,99.99
2017-11-27T12:55:05.567Z,99.99